Time;durP1;ratioP1;P1;durP2;ratioP2;P2;SDS_P1;SDS_P2;PMS_P1;PMS_P2;Temp;Humidity;BMP_temperature;BMP_pressure;BME280_temperature;BME280_humidity;BME280_pressure;Samples;Min_cycle;Max_cycle;Signal;HPM_P1;HPM_P2
2022/10/19 00:01:08;;;;;;;39.07;17.57;;;;;;;;;;5042170;28;20028;-78
2022/10/19 00:03:34;;;;;;;42.17;17.70;;;;;;;;;;5040919;28;20456;-78
2022/10/19 00:06:09;;;;;;;46.07;17.97;;;;;;;;;;5046348;28;20095;-78
2022/10/19 00:08:35;;;;;;;36.93;16.20;;;;;;;;;;5040714;28;20051;-78
2022/10/19 00:11:04;;;;;;;39.70;16.50;;;;;;;;;;5040635;28;20433;-78
2022/10/19 00:13:30;;;;;;;41.50;16.93;;;;;;;;;;5058837;28;20472;-78
2022/10/19 00:15:56;;;;;;;49.47;18.07;;;;;;;;;;5041053;28;20373;-78
2022/10/19 00:18:22;;;;;;;44.23;18.20;;;;;;;;;;5040605;28;20021;-78
2022/10/19 00:20:48;;;;;;;39.73;15.80;;;;;;;;;;5058078;28;20040;-78
2022/10/19 00:23:14;;;;;;;38.70;17.10;;;;;;;;;;5038163;28;20029;-78
2022/10/19 00:25:40;;;;;;;46.20;19.60;;;;;;;;;;5040307;28;20394;-77
2022/10/19 00:28:06;;;;;;;40.40;17.23;;;;;;;;;;5044868;28;20025;-78
2022/10/19 00:30:38;;;;;;;46.57;18.93;;;;;;;;;;5040135;28;20029;-78
2022/10/19 00:33:04;;;;;;;39.83;17.53;;;;;;;;;;5040582;28;20108;-78
2022/10/19 00:35:30;;;;;;;41.53;17.57;;;;;;;;;;5040259;28;20116;-78
2022/10/19 00:37:56;;;;;;;41.70;16.87;;;;;;;;;;5040720;28;20033;-78
2022/10/19 00:40:21;;;;;;;38.67;17.17;;;;;;;;;;5047160;28;20118;-78
2022/10/19 00:42:54;;;;;;;41.93;18.47;;;;;;;;;;5045587;28;20025;-78
2022/10/19 00:45:20;;;;;;;39.53;18.23;;;;;;;;;;5040008;28;20024;-78
2022/10/19 00:47:45;;;;;;;45.27;18.37;;;;;;;;;;5039809;28;20087;-78
2022/10/19 00:50:13;;;;;;;34.93;17.50;;;;;;;;;;5039730;28;20017;-78
2022/10/19 00:52:39;;;;;;;40.30;16.80;;;;;;;;;;5039853;28;20391;-78
2022/10/19 00:55:09;;;;;;;37.93;16.63;;;;;;;;;;5039608;28;20043;-78
2022/10/19 00:57:35;;;;;;;37.20;15.73;;;;;;;;;;5040251;28;20418;-78
2022/10/19 01:00:02;;;;;;;46.33;16.97;;;;;;;;;;5040016;28;20017;-77
2022/10/19 01:02:28;;;;;;;37.23;16.30;;;;;;;;;;5039335;28;20028;-78
2022/10/19 01:04:54;;;;;;;45.70;18.10;;;;;;;;;;5040627;28;20029;-78
2022/10/19 01:07:20;;;;;;;38.07;15.57;;;;;;;;;;5039475;28;20118;-78
2022/10/19 01:09:46;;;;;;;34.47;16.70;;;;;;;;;;5039611;28;20495;-78
2022/10/19 01:12:22;;;;;;;40.60;17.40;;;;;;;;;;5039848;28;20033;-78
2022/10/19 01:14:51;;;;;;;37.13;16.67;;;;;;;;;;5039915;28;20032;-78
2022/10/19 01:17:26;;;;;;;34.97;15.30;;;;;;;;;;5039604;28;20043;-78
2022/10/19 01:19:59;;;;;;;36.07;15.97;;;;;;;;;;5039450;28;20025;-78
2022/10/19 01:22:43;;;;;;;37.40;16.77;;;;;;;;;;5039242;28;20025;-78
2022/10/19 01:25:22;;;;;;;38.43;17.43;;;;;;;;;;5039354;28;20029;-79
2022/10/19 01:28:17;;;;;;;33.07;15.50;;;;;;;;;;5039485;28;20025;-78
2022/10/19 01:30:49;;;;;;;33.80;14.33;;;;;;;;;;5031400;28;20348;-78
2022/10/19 01:33:30;;;;;;;35.83;16.00;;;;;;;;;;5039384;28;20471;-78
2022/10/19 01:35:56;;;;;;;34.50;14.60;;;;;;;;;;5040817;28;20031;-78
2022/10/19 01:38:42;;;;;;;48.33;15.70;;;;;;;;;;5038024;28;20037;-78
2022/10/19 01:41:19;;;;;;;36.53;15.03;;;;;;;;;;5036442;28;20029;-79
2022/10/19 01:43:48;;;;;;;35.00;15.63;;;;;;;;;;5037155;28;20025;-79
2022/10/19 01:46:21;;;;;;;35.23;15.50;;;;;;;;;;5037805;28;20029;-77
2022/10/19 01:48:51;;;;;;;32.35;15.23;;;;;;;;;;5057021;28;20036;-78
2022/10/19 01:51:20;;;;;;;35.57;16.17;;;;;;;;;;5036283;28;20025;-79
2022/10/19 01:53:48;;;;;;;32.20;15.50;;;;;;;;;;5036259;28;20426;-77
2022/10/19 01:56:16;;;;;;;33.37;15.30;;;;;;;;;;5035398;28;20071;-79
2022/10/19 01:58:44;;;;;;;36.53;16.73;;;;;;;;;;5035756;28;20057;-78
2022/10/19 02:01:10;;;;;;;41.87;17.23;;;;;;;;;;5036076;28;20118;-78
2022/10/19 02:03:37;;;;;;;28.63;13.97;;;;;;;;;;5038663;28;20362;-78
2022/10/19 02:06:06;;;;;;;30.43;14.03;;;;;;;;;;5037283;28;20048;-78
2022/10/19 02:08:52;;;;;;;28.07;14.77;;;;;;;;;;5036724;28;20033;-79
2022/10/19 02:11:19;;;;;;;39.23;16.17;;;;;;;;;;5053008;28;20055;-79
2022/10/19 02:13:47;;;;;;;33.50;15.93;;;;;;;;;;5028492;28;20035;-79
2022/10/19 02:16:17;;;;;;;31.80;15.33;;;;;;;;;;5032750;28;20047;-78
2022/10/19 02:18:46;;;;;;;36.33;15.73;;;;;;;;;;5033783;28;20116;-78
2022/10/19 02:21:12;;;;;;;37.83;15.13;;;;;;;;;;5029579;28;20013;-78
2022/10/19 02:23:38;;;;;;;31.00;15.73;;;;;;;;;;5035784;28;20025;-78
2022/10/19 02:26:04;;;;;;;38.30;14.67;;;;;;;;;;5038536;28;20033;-78
2022/10/19 02:28:30;;;;;;;42.67;14.97;;;;;;;;;;5051582;28;20064;-79
2022/10/19 02:30:57;;;;;;;28.07;13.97;;;;;;;;;;5034577;28;20118;-79
2022/10/19 02:33:23;;;;;;;26.67;13.70;;;;;;;;;;5032153;28;20039;-79
2022/10/19 02:35:49;;;;;;;36.13;15.03;;;;;;;;;;5050560;28;20053;-79
2022/10/19 02:38:19;;;;;;;27.97;14.37;;;;;;;;;;5035191;28;20029;-79
2022/10/19 02:40:51;;;;;;;30.67;13.60;;;;;;;;;;5028476;28;20033;-78
2022/10/19 02:43:20;;;;;;;33.95;13.88;;;;;;;;;;5036008;28;20511;-78
2022/10/19 02:45:52;;;;;;;27.20;13.10;;;;;;;;;;5052359;28;20064;-78
2022/10/19 02:48:19;;;;;;;35.80;13.68;;;;;;;;;;5031715;28;20040;-78
2022/10/19 02:50:48;;;;;;;26.37;12.63;;;;;;;;;;5036587;28;20043;-78
2022/10/19 02:53:15;;;;;;;29.83;13.50;;;;;;;;;;5036412;28;20502;-79
2022/10/19 02:55:41;;;;;;;26.63;13.13;;;;;;;;;;5027924;28;20411;-78
2022/10/19 02:58:07;;;;;;;24.03;12.53;;;;;;;;;;5052823;28;20067;-79
2022/10/19 03:00:33;;;;;;;35.00;13.30;;;;;;;;;;5033415;28;20123;-77
2022/10/19 03:02:59;;;;;;;30.10;13.40;;;;;;;;;;5052906;28;20052;-78
2022/10/19 03:05:25;;;;;;;35.80;13.23;;;;;;;;;;5030416;28;20041;-79
2022/10/19 03:07:54;;;;;;;30.67;13.60;;;;;;;;;;5032779;28;20047;-78
2022/10/19 03:10:20;;;;;;;31.07;14.07;;;;;;;;;;5033025;28;20458;-78
2022/10/19 03:12:46;;;;;;;27.47;13.43;;;;;;;;;;5034357;28;20040;-78
2022/10/19 03:15:16;;;;;;;32.13;13.77;;;;;;;;;;5051591;28;20445;-79
2022/10/19 03:17:42;;;;;;;22.73;12.30;;;;;;;;;;5033346;28;21788;-79
2022/10/19 03:20:08;;;;;;;35.30;13.20;;;;;;;;;;5032367;28;20021;-78
2022/10/19 03:22:34;;;;;;;26.53;11.27;;;;;;;;;;5032339;28;20029;-77
2022/10/19 03:25:00;;;;;;;27.93;12.00;;;;;;;;;;5034934;28;20036;-78
2022/10/19 03:27:26;;;;;;;23.93;11.40;;;;;;;;;;5034305;28;20038;-79
2022/10/19 03:29:52;;;;;;;26.40;11.00;;;;;;;;;;5034250;28;20039;-78
2022/10/19 03:32:18;;;;;;;24.73;10.77;;;;;;;;;;5035057;28;20017;-78
2022/10/19 03:34:44;;;;;;;26.97;11.93;;;;;;;;;;5034867;28;20408;-79
2022/10/19 03:37:14;;;;;;;24.40;11.57;;;;;;;;;;5036116;28;20028;-79
2022/10/19 03:39:40;;;;;;;21.50;11.27;;;;;;;;;;5037583;28;20025;-78
2022/10/19 03:42:06;;;;;;;21.03;11.87;;;;;;;;;;5019975;28;20030;-79
2022/10/19 03:44:31;;;;;;;26.87;12.20;;;;;;;;;;5029192;28;20033;-78
2022/10/19 03:46:57;;;;;;;33.83;13.30;;;;;;;;;;5036717;28;20056;-78
2022/10/19 03:49:23;;;;;;;34.80;13.40;;;;;;;;;;5054502;28;20033;-78
2022/10/19 03:51:49;;;;;;;36.17;13.03;;;;;;;;;;5036903;28;20025;-79
2022/10/19 03:54:16;;;;;;;30.13;13.27;;;;;;;;;;5036721;28;20021;-78
2022/10/19 03:56:42;;;;;;;26.30;13.20;;;;;;;;;;5036904;28;20021;-78
2022/10/19 03:59:11;;;;;;;32.77;13.47;;;;;;;;;;5037408;28;20025;-78
2022/10/19 04:01:38;;;;;;;25.67;12.33;;;;;;;;;;5036831;28;20469;-78
2022/10/19 04:04:06;;;;;;;26.37;12.13;;;;;;;;;;5037182;28;20033;-79
2022/10/19 04:06:37;;;;;;;32.17;12.97;;;;;;;;;;5054458;28;20025;-78
2022/10/19 04:09:04;;;;;;;30.87;13.73;;;;;;;;;;5037722;28;20326;-78
2022/10/19 04:11:31;;;;;;;25.97;12.07;;;;;;;;;;5037645;28;20098;-78
2022/10/19 04:13:57;;;;;;;26.40;12.00;;;;;;;;;;5055629;28;20029;-78
2022/10/19 04:16:26;;;;;;;25.63;11.33;;;;;;;;;;5026456;28;20043;-78
2022/10/19 04:18:52;;;;;;;25.80;12.30;;;;;;;;;;5040530;28;20025;-79
2022/10/19 04:21:39;;;;;;;25.30;11.27;;;;;;;;;;5040353;28;20425;-78
2022/10/19 04:24:07;;;;;;;30.53;12.60;;;;;;;;;;5040494;28;20128;-78
2022/10/19 04:26:33;;;;;;;26.13;11.70;;;;;;;;;;5040841;28;20025;-78
2022/10/19 04:28:59;;;;;;;25.40;11.60;;;;;;;;;;5040720;28;20036;-79
2022/10/19 04:31:26;;;;;;;24.73;11.00;;;;;;;;;;5040986;28;20025;-78
2022/10/19 04:33:52;;;;;;;25.30;12.00;;;;;;;;;;5039895;28;20137;-79
2022/10/19 04:36:20;;;;;;;25.87;11.93;;;;;;;;;;5040166;28;20193;-78
2022/10/19 04:38:46;;;;;;;23.53;12.00;;;;;;;;;;5036926;28;20486;-78
2022/10/19 04:41:18;;;;;;;22.87;11.53;;;;;;;;;;5050394;28;20025;-78
2022/10/19 04:43:46;;;;;;;21.57;10.57;;;;;;;;;;5040190;28;20029;-78
2022/10/19 04:46:14;;;;;;;16.83;10.17;;;;;;;;;;5057587;28;20033;-78
2022/10/19 04:48:40;;;;;;;21.27;10.23;;;;;;;;;;5040261;28;20529;-78
2022/10/19 04:51:06;;;;;;;29.17;11.73;;;;;;;;;;5040127;28;20025;-79
2022/10/19 04:53:34;;;;;;;20.70;10.67;;;;;;;;;;5039717;28;20086;-78
2022/10/19 04:56:03;;;;;;;20.77;10.70;;;;;;;;;;5036766;28;20026;-78
2022/10/19 04:58:29;;;;;;;21.80;11.43;;;;;;;;;;5030901;28;20070;-78
2022/10/19 05:00:55;;;;;;;26.17;11.90;;;;;;;;;;5040012;28;20056;-79
2022/10/19 05:03:21;;;;;;;30.73;12.57;;;;;;;;;;5040420;28;20025;-79
2022/10/19 05:05:47;;;;;;;25.37;11.63;;;;;;;;;;5039560;28;20476;-78
2022/10/19 05:08:13;;;;;;;27.73;12.60;;;;;;;;;;5033071;28;20164;-79
2022/10/19 05:10:39;;;;;;;27.57;12.53;;;;;;;;;;5032496;28;20021;-78
2022/10/19 05:13:05;;;;;;;29.57;12.93;;;;;;;;;;5021393;28;20474;-78
2022/10/19 05:15:31;;;;;;;34.43;13.23;;;;;;;;;;5030550;28;20035;-79
2022/10/19 05:17:59;;;;;;;26.20;13.83;;;;;;;;;;5039436;28;20033;-78
2022/10/19 05:20:26;;;;;;;27.87;13.00;;;;;;;;;;5039589;28;20335;-78
2022/10/19 05:22:52;;;;;;;20.93;12.07;;;;;;;;;;5039692;28;20418;-78
2022/10/19 05:25:18;;;;;;;25.17;12.40;;;;;;;;;;5038204;28;20508;-80
2022/10/19 05:27:44;;;;;;;27.67;12.90;;;;;;;;;;5057059;28;20041;-79
2022/10/19 05:30:13;;;;;;;27.60;13.03;;;;;;;;;;5039493;28;20440;-78
2022/10/19 05:32:39;;;;;;;25.60;10.53;;;;;;;;;;5039734;28;20047;-78
2022/10/19 05:35:05;;;;;;;28.97;11.70;;;;;;;;;;5038966;28;20119;-79
2022/10/19 05:37:31;;;;;;;28.80;12.03;;;;;;;;;;5038849;28;20068;-78
2022/10/19 05:39:56;;;;;;;25.57;11.43;;;;;;;;;;5039422;28;20050;-79
2022/10/19 05:42:22;;;;;;;32.53;11.83;;;;;;;;;;5038939;28;20438;-78
2022/10/19 05:44:48;;;;;;;31.17;12.80;;;;;;;;;;5038927;28;20036;-78
2022/10/19 05:47:17;;;;;;;25.87;12.20;;;;;;;;;;5039125;28;20029;-78
2022/10/19 05:49:45;;;;;;;25.13;11.83;;;;;;;;;;5056672;28;20458;-79
2022/10/19 05:52:12;;;;;;;29.90;12.90;;;;;;;;;;5022533;28;20059;-79
2022/10/19 05:54:38;;;;;;;23.83;12.10;;;;;;;;;;5039911;28;20039;-78
2022/10/19 05:57:06;;;;;;;26.13;13.13;;;;;;;;;;5033251;28;20034;-78
2022/10/19 05:59:32;;;;;;;29.07;14.57;;;;;;;;;;5038492;28;20036;-78
2022/10/19 06:01:58;;;;;;;30.03;12.93;;;;;;;;;;5038610;28;20029;-78
2022/10/19 06:04:24;;;;;;;36.07;12.50;;;;;;;;;;5035636;28;20040;-78
2022/10/19 06:06:50;;;;;;;26.57;12.60;;;;;;;;;;5046331;28;20025;-78
2022/10/19 06:09:16;;;;;;;31.47;14.17;;;;;;;;;;5038950;28;20033;-79
2022/10/19 06:11:43;;;;;;;29.43;13.47;;;;;;;;;;5039710;28;20029;-78
2022/10/19 06:14:12;;;;;;;32.60;12.00;;;;;;;;;;5045132;28;20029;-78
2022/10/19 06:16:38;;;;;;;22.07;11.97;;;;;;;;;;5054224;28;20025;-78
2022/10/19 06:19:05;;;;;;;39.50;12.73;;;;;;;;;;5053307;28;20021;-77
2022/10/19 06:21:31;;;;;;;30.37;14.03;;;;;;;;;;5054241;28;20353;-77
2022/10/19 06:23:58;;;;;;;27.60;14.07;;;;;;;;;;5033201;28;20060;-77
2022/10/19 06:26:25;;;;;;;36.13;16.93;;;;;;;;;;5038596;28;20029;-78
2022/10/19 06:28:53;;;;;;;45.33;17.30;;;;;;;;;;5038299;28;20029;-78
2022/10/19 06:31:19;;;;;;;33.53;15.97;;;;;;;;;;5038151;28;20456;-78
2022/10/19 06:33:46;;;;;;;47.57;16.43;;;;;;;;;;5037975;28;20103;-78
2022/10/19 06:36:15;;;;;;;48.87;17.83;;;;;;;;;;5055886;28;20346;-78
2022/10/19 06:38:42;;;;;;;45.30;17.40;;;;;;;;;;5054923;28;20124;-77
2022/10/19 06:41:08;;;;;;;47.50;18.17;;;;;;;;;;5037711;28;20025;-78
2022/10/19 06:43:34;;;;;;;45.20;17.60;;;;;;;;;;5038541;28;20031;-77
2022/10/19 06:46:04;;;;;;;45.70;16.47;;;;;;;;;;5054778;28;20052;-76
2022/10/19 06:48:30;;;;;;;53.87;17.00;;;;;;;;;;5043072;28;20055;-78
2022/10/19 06:50:57;;;;;;;55.00;17.13;;;;;;;;;;5037768;28;20029;-78
2022/10/19 06:53:24;;;;;;;35.07;15.40;;;;;;;;;;5037844;28;20044;-78
2022/10/19 06:55:50;;;;;;;39.67;13.80;;;;;;;;;;5037872;28;20087;-79
2022/10/19 06:58:16;;;;;;;41.60;15.97;;;;;;;;;;5027864;28;20112;-78
2022/10/19 07:00:42;;;;;;;40.40;16.80;;;;;;;;;;5037602;28;20020;-77
2022/10/19 07:03:08;;;;;;;50.53;19.20;;;;;;;;;;5037390;28;20036;-78
2022/10/19 07:05:34;;;;;;;50.57;19.90;;;;;;;;;;5037483;28;20453;-77
2022/10/19 07:08:00;;;;;;;53.73;20.53;;;;;;;;;;5037706;28;20086;-78
2022/10/19 07:10:28;;;;;;;52.80;20.67;;;;;;;;;;5037218;28;20036;-74
2022/10/19 07:12:55;;;;;;;52.07;21.40;;;;;;;;;;5054596;28;20040;-78
2022/10/19 07:15:21;;;;;;;53.83;21.47;;;;;;;;;;5037320;28;20464;-78
2022/10/19 07:17:49;;;;;;;52.00;22.17;;;;;;;;;;5037642;28;20162;-77
2022/10/19 07:20:15;;;;;;;61.07;23.73;;;;;;;;;;5037412;28;20025;-78
2022/10/19 07:22:41;;;;;;;61.03;24.63;;;;;;;;;;5037696;28;20108;-78
2022/10/19 07:25:07;;;;;;;60.53;25.77;;;;;;;;;;5037751;28;20372;-77
2022/10/19 07:27:35;;;;;;;58.63;23.57;;;;;;;;;;5037770;28;20454;-78
2022/10/19 07:30:01;;;;;;;65.40;26.73;;;;;;;;;;5037952;28;20024;-78
2022/10/19 07:32:29;;;;;;;68.60;28.17;;;;;;;;;;5037600;28;20040;-77
2022/10/19 07:34:57;;;;;;;72.67;31.40;;;;;;;;;;5037463;28;20029;-77
2022/10/19 07:37:23;;;;;;;73.07;30.27;;;;;;;;;;5033498;28;20053;-78
2022/10/19 07:39:49;;;;;;;83.47;35.27;;;;;;;;;;5033989;28;20045;-77
2022/10/19 07:42:15;;;;;;;86.17;35.63;;;;;;;;;;5035056;28;20103;-77
2022/10/19 07:44:41;;;;;;;84.57;38.13;;;;;;;;;;5030047;28;20935;-78
2022/10/19 07:47:06;;;;;;;85.37;35.33;;;;;;;;;;5037125;28;20045;-77
2022/10/19 07:49:32;;;;;;;91.13;36.27;;;;;;;;;;5037389;28;20489;-78
2022/10/19 07:51:59;;;;;;;79.53;34.47;;;;;;;;;;5039490;28;20044;-77
2022/10/19 07:54:26;;;;;;;92.77;37.80;;;;;;;;;;5037951;28;20075;-77
2022/10/19 07:56:52;;;;;;;86.63;37.53;;;;;;;;;;5039363;28;20120;-77
2022/10/19 07:59:18;;;;;;;94.60;34.23;;;;;;;;;;5038659;28;20047;-78
2022/10/19 08:01:44;;;;;;;82.27;34.00;;;;;;;;;;5055489;28;20037;-78
2022/10/19 08:04:10;;;;;;;83.93;33.43;;;;;;;;;;5037508;28;20024;-78
2022/10/19 08:06:37;;;;;;;85.33;31.43;;;;;;;;;;5037895;28;20115;-78
2022/10/19 08:09:04;;;;;;;68.07;29.00;;;;;;;;;;5038503;28;20029;-77
2022/10/19 08:11:32;;;;;;;63.80;25.00;;;;;;;;;;5038129;28;20021;-78
2022/10/19 08:13:58;;;;;;;50.60;22.80;;;;;;;;;;5054765;28;20091;-79
2022/10/19 08:16:35;;;;;;;54.70;23.03;;;;;;;;;;5049414;28;20021;-78
2022/10/19 08:19:02;;;;;;;56.77;21.47;;;;;;;;;;5054320;28;20102;-77
2022/10/19 08:21:28;;;;;;;41.53;22.03;;;;;;;;;;5035911;28;20021;-77
2022/10/19 08:23:55;;;;;;;33.90;19.07;;;;;;;;;;5036590;28;20036;-78
2022/10/19 08:26:21;;;;;;;37.40;18.07;;;;;;;;;;5037428;28;20043;-77
2022/10/19 08:28:47;;;;;;;35.90;18.60;;;;;;;;;;5053489;28;20130;-76
2022/10/19 08:31:15;;;;;;;38.23;16.90;;;;;;;;;;5037901;28;20037;-77
2022/10/19 08:33:41;;;;;;;40.20;17.83;;;;;;;;;;5031009;28;20025;-77
2022/10/19 08:36:07;;;;;;;31.83;15.97;;;;;;;;;;5037212;28;20063;-78
2022/10/19 08:38:35;;;;;;;34.43;15.67;;;;;;;;;;5031890;28;20037;-78
2022/10/19 08:41:24;;;;;;;31.67;13.83;;;;;;;;;;5052979;28;20035;-78
2022/10/19 08:43:56;;;;;;;26.67;14.80;;;;;;;;;;5033438;28;20134;-78
2022/10/19 08:46:41;;;;;;;31.95;14.77;;;;;;;;;;5055119;28;20033;-78
2022/10/19 08:49:08;;;;;;;24.37;14.30;;;;;;;;;;5052971;28;20168;-78
2022/10/19 08:51:37;;;;;;;36.10;18.37;;;;;;;;;;5036708;28;20037;-79
2022/10/19 08:54:10;;;;;;;36.57;16.30;;;;;;;;;;5055474;28;20092;-77
2022/10/19 08:56:39;;;;;;;32.07;14.53;;;;;;;;;;5052559;28;20032;-78
2022/10/19 08:59:26;;;;;;;31.77;15.73;;;;;;;;;;5053265;28;20049;-77
2022/10/19 09:02:00;;;;;;;28.17;13.80;;;;;;;;;;5033592;28;20025;-78
2022/10/19 09:04:29;;;;;;;22.77;11.87;;;;;;;;;;5053123;28;20037;-78
2022/10/19 09:07:14;;;;;;;25.30;11.33;;;;;;;;;;5029317;28;20468;-78
2022/10/19 09:09:44;;;;;;;23.37;12.33;;;;;;;;;;5054828;28;20029;-79
2022/10/19 09:12:15;;;;;;;29.23;10.53;;;;;;;;;;5036520;28;20071;-78
2022/10/19 09:14:58;;;;;;;23.00;10.70;;;;;;;;;;5032986;28;21617;-78
2022/10/19 09:17:25;;;;;;;19.30;10.30;;;;;;;;;;5029020;28;20098;-78
2022/10/19 09:19:51;;;;;;;30.13;12.77;;;;;;;;;;5036568;28;20339;-79
2022/10/19 09:22:24;;;;;;;18.17;9.97;;;;;;;;;;5035333;28;20457;-78
2022/10/19 09:24:51;;;;;;;24.23;12.40;;;;;;;;;;5033264;28;20477;-78
2022/10/19 09:27:23;;;;;;;20.10;9.87;;;;;;;;;;5034828;28;20025;-78
2022/10/19 09:30:01;;;;;;;16.98;8.55;;;;;;;;;;5053790;28;20889;-79
2022/10/19 09:32:30;;;;;;;24.90;10.43;;;;;;;;;;5031962;28;20028;-78
2022/10/19 09:34:59;;;;;;;21.00;9.53;;;;;;;;;;5051226;28;20258;-78
2022/10/19 09:37:26;;;;;;;20.30;8.90;;;;;;;;;;5037710;28;20104;-78
2022/10/19 09:39:53;;;;;;;14.20;9.27;;;;;;;;;;5056559;28;20013;-78
2022/10/19 09:42:22;;;;;;;20.53;8.87;;;;;;;;;;5038644;28;20021;-79
2022/10/19 09:44:49;;;;;;;19.60;9.60;;;;;;;;;;5022423;28;20036;-78
2022/10/19 09:47:37;;;;;;;17.57;9.93;;;;;;;;;;5038916;28;20116;-78
2022/10/19 09:50:22;;;;;;;15.67;9.87;;;;;;;;;;5038839;28;20524;-78
2022/10/19 09:52:51;;;;;;;12.20;7.57;;;;;;;;;;5039187;28;20111;-78
2022/10/19 09:55:20;;;;;;;21.77;11.83;;;;;;;;;;5038795;28;20450;-78
2022/10/19 09:57:47;;;;;;;17.87;8.30;;;;;;;;;;5056147;28;20029;-79
2022/10/19 10:00:23;;;;;;;16.10;9.13;;;;;;;;;;5038826;28;20116;-79
2022/10/19 10:02:53;;;;;;;14.30;9.23;;;;;;;;;;5034645;28;20052;-79
2022/10/19 10:05:20;;;;;;;17.13;8.20;;;;;;;;;;5038810;28;20032;-79
2022/10/19 10:07:47;;;;;;;17.20;8.17;;;;;;;;;;5036881;28;20033;-78
2022/10/19 10:10:51;;;;;;;13.37;8.30;;;;;;;;;;5056384;28;20025;-79
2022/10/19 10:13:19;;;;;;;18.00;9.00;;;;;;;;;;4943473;29;20090;-78
2022/10/19 10:15:49;;;;;;;17.63;8.57;;;;;;;;;;4940305;29;20506;-79
2022/10/19 10:18:15;;;;;;;16.57;8.03;;;;;;;;;;4950659;29;20118;-79
2022/10/19 10:21:00;;;;;;;19.60;9.17;;;;;;;;;;4940069;29;20094;-78
2022/10/19 10:23:31;;;;;;;18.77;8.37;;;;;;;;;;4968511;28;20441;-78
2022/10/19 10:25:57;;;;;;;17.27;8.63;;;;;;;;;;4955889;29;20391;-78
2022/10/19 10:28:25;;;;;;;13.67;7.53;;;;;;;;;;4955776;29;20074;-79
2022/10/19 10:31:01;;;;;;;10.93;6.43;;;;;;;;;;4956421;29;20129;-78
2022/10/19 10:33:29;;;;;;;15.77;8.87;;;;;;;;;;4955991;29;20031;-78
2022/10/19 10:35:57;;;;;;;15.47;7.30;;;;;;;;;;4956621;29;20028;-78
2022/10/19 10:38:25;;;;;;;16.93;8.43;;;;;;;;;;4957056;29;20050;-79
2022/10/19 10:40:52;;;;;;;12.90;7.00;;;;;;;;;;4955948;29;20082;-79
2022/10/19 10:43:20;;;;;;;16.50;8.17;;;;;;;;;;4960706;28;20491;-78
2022/10/19 10:45:48;;;;;;;15.60;7.47;;;;;;;;;;5038178;28;20029;-79
2022/10/19 10:48:32;;;;;;;19.43;7.17;;;;;;;;;;5038391;28;20130;-78
2022/10/19 10:51:00;;;;;;;15.00;7.67;;;;;;;;;;5039479;28;20029;-79
2022/10/19 10:53:37;;;;;;;17.13;8.30;;;;;;;;;;5037905;28;20370;-78
2022/10/19 10:56:05;;;;;;;16.33;9.00;;;;;;;;;;5037907;28;20048;-79
2022/10/19 10:58:35;;;;;;;13.40;8.00;;;;;;;;;;5038365;28;20032;-78
2022/10/19 11:01:03;;;;;;;13.73;7.60;;;;;;;;;;5038499;28;20021;-78
2022/10/19 11:03:32;;;;;;;13.73;6.77;;;;;;;;;;5041689;28;20028;-78
2022/10/19 11:06:01;;;;;;;16.00;7.10;;;;;;;;;;5038075;28;20432;-78
2022/10/19 11:08:46;;;;;;;16.27;7.03;;;;;;;;;;5038628;28;20598;-78
2022/10/19 11:11:13;;;;;;;13.03;6.23;;;;;;;;;;5038306;28;20033;-78
2022/10/19 11:13:45;;;;;;;16.37;6.67;;;;;;;;;;5037870;28;20032;-79
2022/10/19 11:16:12;;;;;;;13.13;6.97;;;;;;;;;;5039184;28;20025;-79
2022/10/19 11:18:46;;;;;;;16.70;6.90;;;;;;;;;;5038193;28;20036;-79
2022/10/19 11:21:16;;;;;;;16.47;7.10;;;;;;;;;;5037978;28;20116;-79
2022/10/19 11:23:45;;;;;;;11.63;5.97;;;;;;;;;;5041710;28;20090;-79
2022/10/19 11:26:23;;;;;;;10.63;6.07;;;;;;;;;;5037628;28;20068;-79
2022/10/19 11:28:57;;;;;;;15.50;6.50;;;;;;;;;;5037235;28;20033;-79
2022/10/19 11:31:32;;;;;;;12.15;5.40;;;;;;;;;;5038046;28;20026;-79
2022/10/19 11:34:17;;;;;;;15.05;5.63;;;;;;;;;;5038274;28;20040;-79
2022/10/19 11:36:50;;;;;;;10.13;5.03;;;;;;;;;;5046316;28;20053;-82
2022/10/19 11:39:16;;;;;;;12.13;6.13;;;;;;;;;;5052034;28;20051;-78
2022/10/19 11:41:46;;;;;;;8.85;4.72;;;;;;;;;;5037797;28;20485;-78
2022/10/19 11:44:21;;;;;;;11.73;5.23;;;;;;;;;;5037224;28;20025;-79
2022/10/19 11:46:50;;;;;;;12.73;5.30;;;;;;;;;;5046797;28;20041;-79
2022/10/19 11:49:22;;;;;;;12.98;5.10;;;;;;;;;;5054965;28;20361;-78
2022/10/19 11:51:50;;;;;;;12.88;5.40;;;;;;;;;;5050180;28;20036;-79
2022/10/19 11:54:23;;;;;;;9.57;5.03;;;;;;;;;;5038066;28;20075;-79
2022/10/19 11:57:03;;;;;;;10.77;5.00;;;;;;;;;;5034957;28;20175;-79
2022/10/19 11:59:37;;;;;;;14.32;5.07;;;;;;;;;;5059382;28;20021;-81
2022/10/19 12:02:21;;;;;;;14.15;4.53;;;;;;;;;;5039047;28;20025;-79
2022/10/19 12:04:58;;;;;;;9.23;4.65;;;;;;;;;;5030136;28;20086;-79
2022/10/19 12:07:54;;;;;;;8.07;4.32;;;;;;;;;;5037801;28;20025;-80
2022/10/19 12:10:23;;;;;;;8.20;4.82;;;;;;;;;;5036977;28;20024;-79
2022/10/19 12:12:51;;;;;;;12.23;5.18;;;;;;;;;;5036370;28;20120;-79
2022/10/19 12:15:17;;;;;;;10.75;3.50;;;;;;;;;;5046600;28;20082;-79
2022/10/19 12:17:48;;;;;;;10.07;3.40;;;;;;;;;;5038541;28;20024;-79
2022/10/19 12:20:27;;;;;;;13.20;3.88;;;;;;;;;;5029935;28;20109;-78
2022/10/19 12:22:53;;;;;;;7.60;3.83;;;;;;;;;;5051317;28;20029;-80
2022/10/19 12:25:20;;;;;;;10.65;4.25;;;;;;;;;;5054218;28;20094;-76
2022/10/19 12:27:48;;;;;;;9.23;3.70;;;;;;;;;;5036551;28;20036;-77
2022/10/19 12:30:16;;;;;;;10.80;4.03;;;;;;;;;;5036713;28;20036;-76
2022/10/19 12:32:57;;;;;;;14.02;5.25;;;;;;;;;;5036566;28;20040;-77
2022/10/19 12:35:39;;;;;;;9.82;2.92;;;;;;;;;;5025497;28;20040;-76
2022/10/19 12:38:15;;;;;;;8.30;3.22;;;;;;;;;;5039984;28;20054;-76
2022/10/19 12:40:55;;;;;;;9.63;3.80;;;;;;;;;;5039930;28;20021;-77
2022/10/19 12:43:26;;;;;;;9.40;3.30;;;;;;;;;;5037122;28;20017;-80
2022/10/19 12:46:11;;;;;;;5.80;2.65;;;;;;;;;;5030054;28;20029;-79
2022/10/19 12:48:38;;;;;;;5.80;2.97;;;;;;;;;;5040679;28;20032;-79
2022/10/19 12:51:10;;;;;;;8.68;3.38;;;;;;;;;;5058286;28;20442;-79
2022/10/19 12:53:38;;;;;;;10.13;3.50;;;;;;;;;;5040591;28;20029;-79
2022/10/19 12:56:04;;;;;;;10.02;3.47;;;;;;;;;;5041292;28;20513;-79
2022/10/19 12:58:50;;;;;;;8.93;3.30;;;;;;;;;;5041116;28;20021;-80
2022/10/19 13:01:20;;;;;;;8.88;3.00;;;;;;;;;;5044148;28;20434;-80
2022/10/19 13:03:48;;;;;;;8.63;3.00;;;;;;;;;;5043096;28;20434;-80
2022/10/19 13:06:23;;;;;;;7.20;2.97;;;;;;;;;;5040368;28;20076;-80
2022/10/19 13:08:54;;;;;;;7.55;3.22;;;;;;;;;;5040711;28;20032;-79
2022/10/19 13:11:21;;;;;;;12.02;3.42;;;;;;;;;;5040526;28;20025;-80
2022/10/19 13:13:56;;;;;;;13.93;3.00;;;;;;;;;;5040566;28;20036;-80
2022/10/19 13:16:45;;;;;;;6.30;2.67;;;;;;;;;;5057993;28;20040;-80
2022/10/19 13:19:14;;;;;;;6.20;2.65;;;;;;;;;;5039528;28;20112;-80
2022/10/19 13:21:43;;;;;;;10.70;2.78;;;;;;;;;;5040512;28;20029;-79
2022/10/19 13:24:25;;;;;;;13.13;2.72;;;;;;;;;;5039753;28;20469;-80
2022/10/19 13:27:03;;;;;;;5.55;2.55;;;;;;;;;;5047226;28;20028;-79
2022/10/19 13:29:38;;;;;;;9.15;2.88;;;;;;;;;;5039712;28;20029;-80
2022/10/19 13:32:23;;;;;;;7.68;2.85;;;;;;;;;;5057590;28;20059;-79
2022/10/19 13:34:49;;;;;;;9.43;2.67;;;;;;;;;;5039743;28;20052;-80
2022/10/19 13:37:17;;;;;;;7.85;2.33;;;;;;;;;;5032060;28;20033;-80
2022/10/19 13:39:44;;;;;;;6.25;2.70;;;;;;;;;;5034092;28;20120;-80
2022/10/19 13:42:23;;;;;;;7.07;2.83;;;;;;;;;;5037735;28;20028;-79
2022/10/19 13:44:51;;;;;;;10.80;3.28;;;;;;;;;;5034774;28;20135;-79
2022/10/19 13:47:42;;;;;;;8.90;2.70;;;;;;;;;;5052050;28;20039;-79
2022/10/19 13:50:19;;;;;;;11.27;3.47;;;;;;;;;;5029570;28;20037;-79
2022/10/19 13:52:45;;;;;;;10.68;3.22;;;;;;;;;;5054329;28;20412;-79
2022/10/19 13:55:14;;;;;;;11.25;2.40;;;;;;;;;;5035478;28;20040;-80
2022/10/19 13:58:05;;;;;;;7.28;3.13;;;;;;;;;;5034022;28;20033;-80
2022/10/19 14:00:35;;;;;;;11.43;2.83;;;;;;;;;;5054317;28;20029;-79
2022/10/19 14:03:07;;;;;;;9.02;3.78;;;;;;;;;;5032551;28;20029;-80
2022/10/19 14:05:45;;;;;;;11.40;3.13;;;;;;;;;;5038606;28;20458;-79
2022/10/19 14:08:17;;;;;;;6.35;2.75;;;;;;;;;;5051854;28;20836;-79
2022/10/19 14:10:57;;;;;;;11.90;2.78;;;;;;;;;;5039121;28;20037;-80
2022/10/19 14:13:23;;;;;;;5.93;2.70;;;;;;;;;;5037905;28;20017;-79
2022/10/19 14:15:50;;;;;;;8.35;2.88;;;;;;;;;;5055454;28;20025;-79
2022/10/19 14:18:24;;;;;;;12.13;3.50;;;;;;;;;;5033621;28;20469;-79
2022/10/19 14:20:57;;;;;;;15.60;4.63;;;;;;;;;;5052742;28;20441;-79
2022/10/19 14:23:27;;;;;;;9.27;3.45;;;;;;;;;;5030286;28;20153;-80
2022/10/19 14:26:05;;;;;;;8.63;3.25;;;;;;;;;;5036367;28;20090;-80
2022/10/19 14:28:31;;;;;;;8.50;3.63;;;;;;;;;;5032066;28;20029;-79
2022/10/19 14:31:07;;;;;;;10.05;3.15;;;;;;;;;;5038933;28;20044;-80
2022/10/19 14:33:34;;;;;;;9.45;3.13;;;;;;;;;;5053346;28;20033;-79
2022/10/19 14:36:01;;;;;;;6.90;2.97;;;;;;;;;;5035329;28;20032;-80
2022/10/19 14:38:42;;;;;;;9.80;3.33;;;;;;;;;;5030311;28;20045;-78